Torbat-Heydarieh, Iran
Current Conditions -  °F | °C
As of 3:30 AM on Sunday 23 Nov 2014 (Local Time) from OIMM Reporting Station
Clear Clear  
Wind Chill:   Ceiling: Unl
Heat Index:   Visibility: 5mi
Dew Point:   Wind: 0mph
Humidity: 76%   Direction: NA
Pressure: 29.91"   Gusts: NA
Location:  35.27°N, 59.22°E
Report Text: OIMM 230030Z 00000KT 8000 NSC 06/02 Q1013 A2992
Loading
Personal Weather Stations






























Interactive Weather Map New forecast layout! Learn more

10-Day Weather Forecast

Advertisements
Track Severe Weather on mobile